createdAt,value
2023-05-20T00:03:49.377Z,101273.94
2023-05-20T00:08:55.681Z,101264.28
2023-05-20T00:13:58.514Z,101252.47
2023-05-20T00:19:01.592Z,101256.19
2023-05-20T00:24:06.156Z,101262.22
2023-05-20T00:29:08.967Z,101265.13
2023-05-20T00:34:11.789Z,101265.69
2023-05-20T00:39:16.068Z,101279.91
2023-05-20T00:44:19.013Z,101267.50
2023-05-20T00:49:22.688Z,101256.63
2023-05-20T00:54:26.990Z,101252.03
2023-05-20T00:59:29.919Z,101254.13
2023-05-20T01:04:33.001Z,101244.22
2023-05-20T01:09:37.116Z,101244.47
2023-05-20T01:14:44.328Z,101243.63
2023-05-20T01:19:47.395Z,101247.03
2023-05-20T01:24:53.600Z,101246.34
2023-05-20T01:29:56.480Z,101235.59
2023-05-20T01:35:00.051Z,101237.66
2023-05-20T01:40:05.396Z,101247.16
2023-05-20T01:45:09.082Z,101242.94
2023-05-20T01:50:12.076Z,101241.97
2023-05-20T01:55:16.238Z,101240.50
2023-05-20T02:00:19.745Z,101237.97
2023-05-20T02:05:22.595Z,101238.81
2023-05-20T02:10:26.785Z,101242.22
2023-05-20T02:15:29.569Z,101244.81
2023-05-20T02:20:33.097Z,101236.28
2023-05-20T02:25:38.514Z,101248.19
2023-05-20T02:30:41.605Z,101249.38
2023-05-20T02:35:44.345Z,101247.81
2023-05-20T02:40:48.469Z,101247.19
2023-05-20T02:45:52.410Z,101231.91
2023-05-20T02:50:55.349Z,101236.50
2023-05-20T02:56:00.007Z,101242.09
2023-05-20T03:01:02.928Z,101240.56
2023-05-20T03:06:06.211Z,101226.03
2023-05-20T03:11:10.401Z,101228.97
2023-05-20T03:16:13.512Z,101230.69
2023-05-20T03:21:16.420Z,101240.97
2023-05-20T03:26:21.766Z,101242.50
2023-05-20T03:31:24.674Z,101246.25
2023-05-20T03:36:28.405Z,101252.94
2023-05-20T03:41:33.246Z,101247.78
2023-05-20T03:46:36.224Z,101251.91
2023-05-20T03:51:39.461Z,101243.22
2023-05-20T03:56:49.343Z,101256.41
2023-05-20T04:01:52.245Z,101248.50
2023-05-20T04:06:56.167Z,101256.47
2023-05-20T04:12:01.221Z,101258.22
2023-05-20T04:17:05.964Z,101262.81
2023-05-20T04:22:09.116Z,101269.28
2023-05-20T04:27:14.000Z,101274.66
2023-05-20T04:32:19.332Z,101286.53
2023-05-20T04:37:23.506Z,101277.38
2023-05-20T04:42:29.883Z,101277.19
2023-05-20T04:47:38.757Z,101280.75
2023-05-20T04:52:43.051Z,101269.63
2023-05-20T04:57:48.298Z,101265.88
2023-05-20T05:02:51.735Z,101259.88
2023-05-20T05:07:55.342Z,101266.06
2023-05-20T05:13:00.125Z,101262.25
2023-05-20T05:18:03.350Z,101265.81
2023-05-20T05:23:07.166Z,101269.28
2023-05-20T05:28:11.524Z,101276.44
2023-05-20T05:33:15.710Z,101269.69
2023-05-20T05:38:18.757Z,101262.19
2023-05-20T05:43:23.914Z,101256.94
2023-05-20T05:48:27.809Z,101260.88
2023-05-20T05:53:30.618Z,101280.06
2023-05-20T05:58:34.947Z,101264.88
2023-05-20T06:03:39.928Z,101273.41
2023-05-20T06:08:43.142Z,101274.09
2023-05-20T06:13:49.050Z,101274.91
2023-05-20T06:18:53.127Z,101266.16
2023-05-20T06:23:56.031Z,101262.59
2023-05-20T06:29:00.727Z,101263.63
2023-05-20T06:34:03.678Z,101257.91
2023-05-20T06:39:12.122Z,101256.63
2023-05-20T06:44:17.393Z,101255.75
2023-05-20T06:49:34.650Z,101257.13
2023-05-20T06:54:41.242Z,101255.50
2023-05-20T06:59:47.627Z,101259.16
2023-05-20T07:04:51.672Z,101250.22
2023-05-20T07:09:55.885Z,101245.97
2023-05-20T07:15:00.225Z,101243.59
2023-05-20T07:20:04.140Z,101248.97
2023-05-20T07:25:09.101Z,101235.94
2023-05-20T07:30:14.685Z,101235.34
2023-05-20T07:35:24.493Z,101224.78
2023-05-20T07:40:27.356Z,101216.44
2023-05-20T07:45:31.798Z,101202.84
2023-05-20T07:50:34.985Z,101205.50
2023-05-20T07:55:37.926Z,101201.47
2023-05-20T08:00:43.280Z,101196.09
2023-05-20T08:05:47.134Z,101204.13
2023-05-20T08:10:52.228Z,101203.69
2023-05-20T08:15:57.776Z,101203.03
2023-05-20T08:21:01.962Z,101191.38
2023-05-20T08:26:05.137Z,101178.53
2023-05-20T08:31:11.383Z,101169.53
2023-05-20T08:36:14.860Z,101168.28
2023-05-20T08:41:17.780Z,101154.88
2023-05-20T08:46:24.873Z,101150.06
2023-05-20T08:51:29.061Z,101144.75
2023-05-20T08:56:33.824Z,101143.50
2023-05-20T09:01:42.923Z,101126.41
2023-05-20T09:06:46.887Z,101139.31
2023-05-20T09:11:49.654Z,101129.44
2023-05-20T09:16:53.810Z,101115.16
2023-05-20T09:21:56.757Z,101121.75
2023-05-20T09:27:00.052Z,101114.72
2023-05-20T09:32:05.761Z,101115.03
2023-05-20T09:37:09.092Z,101112.31
2023-05-20T09:42:17.149Z,101110.56
2023-05-20T09:47:21.557Z,101110.53
2023-05-20T09:52:24.691Z,101116.47
2023-05-20T09:57:27.427Z,101126.28
2023-05-20T10:02:32.000Z,101121.59
2023-05-20T10:08:03.158Z,101113.13
2023-05-20T10:13:15.937Z,101115.91
2023-05-20T10:18:30.996Z,101111.25
2023-05-20T10:23:33.709Z,101113.47
2023-05-20T10:28:38.119Z,101101.91
2023-05-20T10:33:44.630Z,101107.03
2023-05-20T10:38:51.212Z,101093.16
2023-05-20T10:44:04.361Z,101093.16
2023-05-20T10:49:19.013Z,101089.72
2023-05-20T10:54:22.866Z,101070.75
2023-05-20T10:59:26.128Z,101060.34
2023-05-20T11:04:32.050Z,101057.25
2023-05-20T11:09:35.023Z,101040.22
2023-05-20T11:14:37.740Z,101051.44
2023-05-20T11:19:41.908Z,101036.59
2023-05-20T11:24:44.677Z,101041.59
2023-05-20T11:29:50.806Z,101038.34
2023-05-20T11:34:54.866Z,101030.50
2023-05-20T11:40:09.382Z,101035.28
2023-05-20T11:45:14.681Z,101034.75
2023-05-20T11:50:21.031Z,101035.75
2023-05-20T11:55:23.776Z,101022.69
2023-05-20T12:00:29.172Z,101022.09
2023-05-20T12:05:35.430Z,101002.66
2023-05-20T12:10:38.444Z,101014.50
2023-05-20T12:15:41.444Z,101008.50
2023-05-20T12:20:45.610Z,101004.16
2023-05-20T12:25:49.881Z,101000.22
2023-05-20T12:30:52.913Z,100993.06
2023-05-20T12:35:57.048Z,100998.06
2023-05-20T12:40:59.805Z,100999.72
2023-05-20T12:46:02.560Z,100997.13
2023-05-20T12:51:06.968Z,101003.75
2023-05-20T12:56:09.727Z,100999.09
2023-05-20T13:01:12.651Z,100986.84
2023-05-20T13:06:16.796Z,100987.06
2023-05-20T13:11:19.656Z,100976.41
2023-05-20T13:16:22.395Z,100960.50
2023-05-20T13:21:26.588Z,100966.50
2023-05-20T13:26:29.387Z,100953.44
2023-05-20T13:31:32.205Z,100952.13
2023-05-20T13:36:36.409Z,100945.47
2023-05-20T13:41:39.109Z,100943.84
2023-05-20T13:46:41.816Z,100935.78
2023-05-20T13:51:46.392Z,100941.69
2023-05-20T13:56:49.449Z,100921.22
2023-05-20T14:01:52.684Z,100917.81
2023-05-20T14:06:56.846Z,100919.56
2023-05-20T14:11:59.624Z,100926.47
2023-05-20T14:17:02.412Z,100911.72
2023-05-20T14:22:06.603Z,100915.03
2023-05-20T14:27:09.449Z,100919.94
2023-05-20T14:32:13.471Z,100917.44
2023-05-20T14:37:17.653Z,100911.41
2023-05-20T14:42:20.392Z,100913.69
2023-05-20T14:47:23.180Z,100911.69
2023-05-20T14:52:27.636Z,100914.22
2023-05-20T14:57:30.728Z,100905.41
2023-05-20T15:02:33.662Z,100910.25
2023-05-20T15:07:37.880Z,100907.56
2023-05-20T15:12:40.966Z,100892.56
2023-05-20T15:17:43.796Z,100889.09
2023-05-20T15:22:48.658Z,100888.97
2023-05-20T15:27:51.402Z,100889.59
2023-05-20T15:32:54.301Z,100898.75
2023-05-20T15:37:58.500Z,100896.31
2023-05-20T15:43:01.536Z,100899.53
2023-05-20T15:48:04.647Z,100904.56
2023-05-20T15:53:09.573Z,100908.72
2023-05-20T15:58:12.461Z,100905.56
2023-05-20T16:03:16.325Z,100901.13
2023-05-20T16:08:23.815Z,100897.09
2023-05-20T16:13:26.699Z,100889.28
2023-05-20T16:18:29.679Z,100892.94
2023-05-20T16:23:33.801Z,100884.22
2023-05-20T16:28:36.616Z,100880.31
2023-05-20T16:33:39.369Z,100871.19
2023-05-20T16:38:43.434Z,100868.59
2023-05-20T16:43:46.171Z,100861.91
2023-05-20T16:48:48.996Z,100868.84
2023-05-20T16:53:53.171Z,100875.03
2023-05-20T16:58:56.130Z,100880.31
2023-05-20T17:03:59.034Z,100884.63
2023-05-20T17:09:04.423Z,100881.94
2023-05-20T17:14:07.150Z,100887.47
2023-05-20T17:19:09.935Z,100885.16
2023-05-20T17:24:14.050Z,100894.31
2023-05-20T17:29:16.786Z,100893.03
2023-05-20T17:34:19.616Z,100891.13
2023-05-20T17:39:23.779Z,100897.63
2023-05-20T17:44:26.565Z,100905.53
2023-05-20T17:49:29.362Z,100906.41
2023-05-20T17:54:33.489Z,100906.88
2023-05-20T17:59:41.824Z,100897.41
2023-05-20T18:04:44.621Z,100900.47
2023-05-20T18:09:48.735Z,100912.66
2023-05-20T18:14:51.570Z,100915.47
2023-05-20T18:19:54.375Z,100922.44
2023-05-20T18:24:58.858Z,100913.97
2023-05-20T18:30:01.589Z,100920.97
2023-05-20T18:35:04.417Z,100919.44
2023-05-20T18:40:10.244Z,100923.50
2023-05-20T18:45:13.111Z,100917.28
2023-05-20T18:50:16.191Z,100922.28
2023-05-20T18:55:20.596Z,100936.59
2023-05-20T19:00:23.820Z,100926.72
2023-05-20T19:05:26.776Z,100922.16
2023-05-20T19:10:30.912Z,100934.88
2023-05-20T19:15:33.985Z,100935.28
2023-05-20T19:20:37.037Z,100933.75
2023-05-20T19:25:41.379Z,100926.38
2023-05-20T19:30:44.184Z,100935.06
2023-05-20T19:35:46.986Z,100939.41
2023-05-20T19:40:51.096Z,100937.44
2023-05-20T19:45:53.948Z,100945.44
2023-05-20T19:50:56.913Z,100950.66
2023-05-20T19:56:01.030Z,100947.00
2023-05-20T20:01:04.502Z,100940.72
2023-05-20T20:06:07.257Z,100929.13
2023-05-20T20:11:11.478Z,100924.13
2023-05-20T20:16:15.469Z,100927.03
2023-05-20T20:21:18.340Z,100939.50
2023-05-20T20:26:25.834Z,100940.44
2023-05-20T20:31:28.750Z,100945.13
2023-05-20T20:36:32.113Z,100957.25
2023-05-20T20:41:38.604Z,100946.25
2023-05-20T20:46:41.754Z,100948.34
2023-05-20T20:51:44.524Z,100950.88
2023-05-20T20:56:49.967Z,100954.78
2023-05-20T21:01:52.851Z,100960.00
2023-05-20T21:06:55.640Z,100955.91
2023-05-20T21:12:00.361Z,100956.38
2023-05-20T21:17:03.224Z,100955.09
2023-05-20T21:22:06.342Z,100969.22
2023-05-20T21:27:10.443Z,100963.66
2023-05-20T21:32:13.233Z,100964.06
2023-05-20T21:37:15.989Z,100980.94
2023-05-20T21:42:20.135Z,100977.84
2023-05-20T21:47:23.009Z,100984.22
2023-05-20T21:52:25.843Z,100977.91
2023-05-20T21:57:29.966Z,100977.63
2023-05-20T22:02:32.774Z,100987.81
2023-05-20T22:07:35.613Z,100987.50
2023-05-20T22:12:39.690Z,100986.84
2023-05-20T22:17:44.747Z,100977.94
2023-05-20T22:22:47.527Z,100963.41
2023-05-20T22:27:51.702Z,100945.50
2023-05-20T22:32:54.536Z,100945.97
2023-05-20T22:37:57.375Z,100942.38
2023-05-20T22:43:01.631Z,100926.25
2023-05-20T22:48:04.796Z,100928.69
2023-05-20T22:53:07.590Z,100917.94
2023-05-20T22:58:12.291Z,100912.50
2023-05-20T23:03:15.157Z,100909.72
2023-05-20T23:08:17.937Z,100896.97
2023-05-20T23:13:22.060Z,100893.47
2023-05-20T23:18:24.847Z,100884.16
2023-05-20T23:23:31.271Z,100870.78
2023-05-20T23:28:36.276Z,100874.41
2023-05-20T23:33:39.123Z,100868.03
2023-05-20T23:38:42.104Z,100867.81
2023-05-20T23:43:46.353Z,100859.72
2023-05-20T23:48:49.893Z,100855.50
2023-05-20T23:53:52.663Z,100870.31
2023-05-20T23:58:57.666Z,100865.00
